Time;durP1;ratioP1;P1;durP2;ratioP2;P2;SDS_P1;SDS_P2;PMS_P1;PMS_P2;Temp;Humidity;BMP_temperature;BMP_pressure;BME280_temperature;BME280_humidity;BME280_pressure;Samples;Min_cycle;Max_cycle;Signal;HPM_P1;HPM_P2
2022/11/05 00:10:11;;;;;;;0.30;0.30;;;6.70;99.90;;;;;;5032031;28;20445;-95
2022/11/05 00:18:05;;;;;;;0.30;0.30;;;6.60;99.90;;;;;;5020654;28;20449;-95
2022/11/05 00:20:30;;;;;;;0.30;0.30;;;6.60;99.90;;;;;;5030012;28;20562;-94
2022/11/05 00:25:56;;;;;;;0.30;0.30;;;6.50;99.90;;;;;;5030489;28;20242;-95
2022/11/05 00:28:22;;;;;;;0.20;0.20;;;6.50;99.90;;;;;;5034945;28;20575;-95
2022/11/05 00:30:47;;;;;;;0.40;0.40;;;6.50;99.90;;;;;;5013566;28;21057;-95
2022/11/05 00:33:13;;;;;;;0.30;0.30;;;6.50;99.90;;;;;;5036872;28;20240;-94
2022/11/05 00:35:39;;;;;;;0.30;0.30;;;6.60;99.90;;;;;;5034435;28;20238;-95
2022/11/05 00:38:04;;;;;;;0.30;0.30;;;6.60;99.90;;;;;;4999154;28;20428;-95
2022/11/05 00:40:30;;;;;;;0.30;0.30;;;6.60;99.90;;;;;;5010278;28;20192;-95
2022/11/05 00:45:39;;;;;;;0.30;0.30;;;6.60;99.90;;;;;;5026974;28;20627;-95
2022/11/05 00:50:50;;;;;;;0.30;0.30;;;6.50;99.90;;;;;;5028967;28;20293;-95
2022/11/05 00:53:15;;;;;;;0.30;0.30;;;6.40;99.90;;;;;;5010021;28;20981;-95
2022/11/05 00:55:43;;;;;;;0.30;0.30;;;6.40;99.90;;;;;;5014974;28;20191;-95
2022/11/05 00:58:15;;;;;;;0.30;0.30;;;6.30;99.90;;;;;;5006046;28;20259;-95
2022/11/05 01:00:43;;;;;;;0.30;0.30;;;6.20;99.90;;;;;;5018621;28;20443;-95
2022/11/05 01:03:12;;;;;;;0.30;0.30;;;6.20;99.90;;;;;;5031490;28;20604;-95
2022/11/05 01:05:43;;;;;;;0.30;0.30;;;6.10;99.90;;;;;;5033156;28;20450;-95
2022/11/05 01:08:10;;;;;;;0.30;0.30;;;6.10;99.90;;;;;;5034236;28;20438;-95
2022/11/05 01:10:45;;;;;;;0.30;0.30;;;6.10;99.90;;;;;;5013688;28;20506;-95
2022/11/05 01:13:12;;;;;;;0.30;0.30;;;5.90;99.90;;;;;;5002437;28;20954;-94
2022/11/05 01:15:38;;;;;;;0.30;0.30;;;6.10;99.90;;;;;;5010774;28;22223;-95
2022/11/05 01:18:04;;;;;;;0.30;0.30;;;6.10;99.90;;;;;;5005495;28;20457;-95
2022/11/05 01:20:30;;;;;;;0.30;0.30;;;6.10;99.90;;;;;;5030477;28;20938;-95
2022/11/05 01:22:56;;;;;;;0.30;0.30;;;6.00;99.90;;;;;;5029967;28;20457;-94
2022/11/05 01:25:21;;;;;;;0.30;0.30;;;6.10;99.90;;;;;;5011284;28;20234;-94
2022/11/05 01:27:47;;;;;;;0.30;0.30;;;6.00;99.90;;;;;;5022134;28;20793;-95
2022/11/05 01:30:13;;;;;;;0.37;0.37;;;6.10;99.90;;;;;;5031700;28;20190;-94
2022/11/05 01:32:38;;;;;;;0.30;0.30;;;6.00;99.90;;;;;;4997681;28;20176;-96
2022/11/05 01:35:06;;;;;;;0.30;0.30;;;5.90;99.90;;;;;;5023513;28;20179;-96
2022/11/05 01:37:32;;;;;;;0.30;0.30;;;5.90;99.90;;;;;;5031529;28;20195;-95
2022/11/05 01:39:58;;;;;;;0.27;0.27;;;6.00;99.90;;;;;;5026484;28;20998;-95
2022/11/05 01:42:26;;;;;;;0.30;0.30;;;6.00;99.90;;;;;;5013279;28;20537;-95
2022/11/05 01:45:11;;;;;;;0.30;0.30;;;6.00;99.90;;;;;;5012896;28;20184;-95
2022/11/05 01:47:53;;;;;;;0.30;0.30;;;6.00;99.90;;;;;;5018091;28;20479;-95
2022/11/05 01:50:21;;;;;;;0.30;0.30;;;6.00;99.90;;;;;;5031487;28;20469;-93
2022/11/05 01:52:51;;;;;;;0.30;0.30;;;5.90;99.90;;;;;;5033209;28;20442;-94
2022/11/05 01:55:22;;;;;;;0.30;0.30;;;5.90;99.90;;;;;;5023513;28;20438;-94
2022/11/05 01:57:48;;;;;;;0.30;0.30;;;5.90;99.90;;;;;;5033618;28;20431;-95
2022/11/05 02:00:15;;;;;;;0.40;0.40;;;5.90;99.90;;;;;;5031146;28;20430;-95
2022/11/05 02:02:42;;;;;;;0.30;0.30;;;5.90;99.90;;;;;;5023768;28;20541;-95
2022/11/05 02:05:10;;;;;;;0.30;0.30;;;6.00;99.90;;;;;;5032095;28;20438;-96
2022/11/05 02:07:35;;;;;;;0.30;0.30;;;5.90;99.90;;;;;;5032869;28;20521;-94
2022/11/05 02:10:05;;;;;;;0.30;0.30;;;5.90;99.90;;;;;;5033136;28;20545;-95
2022/11/05 02:12:32;;;;;;;0.30;0.30;;;6.00;99.90;;;;;;5016423;28;20223;-95
2022/11/05 02:14:57;;;;;;;0.30;0.30;;;6.10;99.90;;;;;;5026115;28;20447;-95
2022/11/05 02:17:38;;;;;;;0.30;0.30;;;6.10;99.90;;;;;;5027180;28;20487;-94
2022/11/05 02:20:21;;;;;;;0.30;0.30;;;6.00;99.90;;;;;;5014160;28;20297;-95
2022/11/05 02:23:03;;;;;;;0.30;0.30;;;5.90;99.90;;;;;;5031853;28;20438;-94
2022/11/05 02:25:53;;;;;;;0.30;0.30;;;5.80;99.90;;;;;;5018587;28;20446;-95
2022/11/05 02:28:51;;;;;;;0.30;0.30;;;5.90;99.90;;;;;;5032653;28;20449;-95
2022/11/05 02:31:25;;;;;;;0.30;0.30;;;5.90;99.90;;;;;;5030969;28;20485;-94
2022/11/05 02:33:55;;;;;;;0.30;0.30;;;5.90;99.90;;;;;;4999685;28;20468;-95
2022/11/05 02:36:34;;;;;;;0.30;0.30;;;5.90;99.90;;;;;;5032004;28;21040;-94
2022/11/05 02:39:12;;;;;;;0.30;0.30;;;5.90;99.90;;;;;;5031552;28;20450;-94
2022/11/05 02:42:10;;;;;;;0.40;0.40;;;5.90;99.90;;;;;;5026357;28;20441;-94
2022/11/05 02:44:54;;;;;;;0.30;0.30;;;5.90;99.90;;;;;;5021034;28;20432;-94
2022/11/05 02:47:37;;;;;;;0.30;0.30;;;5.90;99.90;;;;;;5023075;28;20461;-94
2022/11/05 02:50:14;;;;;;;0.40;0.40;;;5.90;99.90;;;;;;5014069;28;20438;-95
2022/11/05 02:52:53;;;;;;;0.40;0.40;;;6.00;99.90;;;;;;5032299;28;20460;-95
2022/11/05 02:55:30;;;;;;;0.30;0.30;;;6.00;99.90;;;;;;5029856;28;20423;-95
2022/11/05 02:57:55;;;;;;;0.30;0.30;;;5.90;99.90;;;;;;5009159;28;20469;-92
2022/11/05 03:00:42;;;;;;;0.40;0.40;;;6.00;99.90;;;;;;5032630;28;20555;-95
2022/11/05 03:03:13;;;;;;;0.30;0.30;;;6.00;99.90;;;;;;5030980;28;20190;-95
2022/11/05 03:05:46;;;;;;;0.30;0.30;;;6.00;99.90;;;;;;5009412;28;20450;-94
2022/11/05 03:08:27;;;;;;;0.40;0.40;;;5.90;99.90;;;;;;5029897;28;20511;-95
2022/11/05 03:11:14;;;;;;;0.30;0.30;;;5.80;99.90;;;;;;5028863;28;20548;-95
2022/11/05 03:13:43;;;;;;;0.30;0.30;;;5.80;99.90;;;;;;5007981;28;20430;-94
2022/11/05 03:16:17;;;;;;;0.33;0.33;;;5.80;99.90;;;;;;5028448;28;20450;-95
2022/11/05 03:18:57;;;;;;;0.30;0.30;;;5.80;99.90;;;;;;5027676;28;20440;-94
2022/11/05 03:21:45;;;;;;;0.40;0.40;;;5.90;99.90;;;;;;5031208;28;20446;-94
2022/11/05 03:24:17;;;;;;;0.30;0.30;;;5.80;99.90;;;;;;5032712;28;20902;-94
2022/11/05 03:26:49;;;;;;;0.40;0.40;;;5.80;99.90;;;;;;5032817;28;20560;-93
2022/11/05 03:29:40;;;;;;;0.30;0.30;;;5.70;99.90;;;;;;5035439;28;20446;-94
2022/11/05 03:32:08;;;;;;;0.30;0.30;;;5.70;99.90;;;;;;5030829;28;20485;-94
2022/11/05 03:34:43;;;;;;;0.30;0.30;;;5.70;99.90;;;;;;5029662;28;20926;-94
2022/11/05 03:37:09;;;;;;;0.30;0.30;;;5.70;99.90;;;;;;5032918;28;20600;-96
2022/11/05 03:39:43;;;;;;;0.33;0.33;;;5.70;99.90;;;;;;5030670;28;20442;-95
2022/11/05 03:42:13;;;;;;;0.30;0.30;;;5.70;99.90;;;;;;5031413;28;20456;-95
2022/11/05 03:44:43;;;;;;;0.30;0.30;;;5.70;99.90;;;;;;5029369;28;20438;-94
2022/11/05 03:47:13;;;;;;;0.40;0.40;;;5.70;99.90;;;;;;5028599;28;20438;-94
2022/11/05 03:49:49;;;;;;;0.30;0.30;;;5.70;99.90;;;;;;5015016;28;20454;-95
2022/11/05 03:52:18;;;;;;;0.30;0.30;;;5.70;99.90;;;;;;5032172;28;20477;-94
2022/11/05 03:54:45;;;;;;;0.40;0.40;;;5.70;99.90;;;;;;5036213;28;20418;-95
2022/11/05 03:57:19;;;;;;;0.40;0.40;;;5.70;99.90;;;;;;5026279;28;20486;-94
2022/11/05 03:59:47;;;;;;;0.30;0.30;;;5.70;99.90;;;;;;5018504;28;20430;-95
2022/11/05 04:02:15;;;;;;;0.30;0.30;;;5.70;99.90;;;;;;5014680;28;20449;-94
2022/11/05 04:04:41;;;;;;;0.30;0.30;;;5.70;99.90;;;;;;4998887;28;20514;-93
2022/11/05 04:15:20;;;;;;;0.30;0.30;;;5.60;99.90;;;;;;5036217;28;20560;-95
2022/11/05 04:17:46;;;;;;;0.40;0.40;;;5.60;99.90;;;;;;5032593;28;21005;-94
2022/11/05 04:25:45;;;;;;;0.40;0.40;;;5.60;99.90;;;;;;5033363;28;20449;-94
2022/11/05 04:28:11;;;;;;;0.30;0.30;;;5.50;99.90;;;;;;5035991;28;20452;-94
2022/11/05 04:30:37;;;;;;;0.30;0.30;;;5.60;99.90;;;;;;5034669;28;20675;-93
2022/11/05 04:33:02;;;;;;;0.30;0.30;;;5.60;99.90;;;;;;5026699;28;20453;-94
2022/11/05 04:35:34;;;;;;;0.30;0.30;;;5.60;99.90;;;;;;5035233;28;20211;-94
2022/11/05 04:38:00;;;;;;;0.30;0.30;;;5.50;99.90;;;;;;5035985;28;20180;-95
2022/11/05 04:40:26;;;;;;;0.30;0.30;;;5.60;99.90;;;;;;5014884;28;21749;-94
2022/11/05 04:42:56;;;;;;;0.30;0.30;;;5.60;99.90;;;;;;5015926;28;20581;-94
2022/11/05 04:45:27;;;;;;;0.40;0.40;;;5.50;99.90;;;;;;5026422;28;22321;-94
2022/11/05 04:47:53;;;;;;;0.30;0.30;;;5.50;99.90;;;;;;5013009;28;20966;-95
2022/11/05 04:50:19;;;;;;;0.30;0.30;;;5.60;99.90;;;;;;5048594;28;20449;-94
2022/11/05 04:52:44;;;;;;;0.30;0.30;;;5.60;99.90;;;;;;5034938;28;20635;-94
2022/11/05 04:55:10;;;;;;;0.30;0.30;;;5.60;99.90;;;;;;5033980;28;20436;-94
2022/11/05 04:57:36;;;;;;;0.40;0.40;;;5.60;99.90;;;;;;5034078;28;20265;-94
2022/11/05 05:00:04;;;;;;;0.30;0.30;;;5.60;99.90;;;;;;5030225;28;20218;-94
2022/11/05 05:02:30;;;;;;;0.30;0.30;;;5.60;99.90;;;;;;5036185;28;20187;-94
2022/11/05 05:04:55;;;;;;;0.40;0.40;;;5.60;99.90;;;;;;5034416;28;20450;-94
2022/11/05 05:07:21;;;;;;;0.30;0.30;;;5.60;99.90;;;;;;5034915;28;20279;-94
2022/11/05 05:09:46;;;;;;;0.30;0.30;;;5.50;99.90;;;;;;5017021;28;20195;-93
2022/11/05 05:12:12;;;;;;;0.30;0.30;;;5.50;99.90;;;;;;5033857;28;20234;-94
2022/11/05 05:14:37;;;;;;;0.30;0.30;;;5.50;99.90;;;;;;5032588;28;20556;-93
2022/11/05 05:17:03;;;;;;;0.40;0.40;;;5.50;99.90;;;;;;5024484;28;20199;-93
2022/11/05 05:19:28;;;;;;;0.40;0.40;;;5.50;99.90;;;;;;5026459;28;20224;-94
2022/11/05 05:21:54;;;;;;;0.40;0.40;;;5.50;99.90;;;;;;5034914;28;20712;-95
2022/11/05 05:24:20;;;;;;;0.30;0.30;;;5.50;99.90;;;;;;5034459;28;20244;-94
2022/11/05 05:26:49;;;;;;;0.30;0.30;;;5.60;99.90;;;;;;5053771;28;20224;-93
2022/11/05 05:29:16;;;;;;;0.40;0.40;;;5.50;99.90;;;;;;5030355;28;20576;-95
2022/11/05 05:31:43;;;;;;;0.30;0.30;;;5.60;99.90;;;;;;5015395;28;20474;-93
2022/11/05 05:34:14;;;;;;;0.30;0.30;;;5.60;99.90;;;;;;5033327;28;20524;-94
2022/11/05 05:36:40;;;;;;;0.30;0.30;;;5.60;99.90;;;;;;5031937;28;20486;-93
2022/11/05 05:39:07;;;;;;;0.30;0.30;;;5.60;99.90;;;;;;5009506;28;20443;-93
2022/11/05 05:41:32;;;;;;;0.30;0.30;;;5.70;99.90;;;;;;5014479;28;20213;-93
2022/11/05 05:43:58;;;;;;;0.40;0.40;;;5.70;99.90;;;;;;5026273;28;20503;-94
2022/11/05 05:46:24;;;;;;;0.30;0.30;;;5.80;99.90;;;;;;5045690;28;20768;-94
2022/11/05 05:48:50;;;;;;;0.30;0.30;;;5.70;99.90;;;;;;5016830;28;20606;-94
2022/11/05 05:51:17;;;;;;;0.30;0.30;;;5.80;99.90;;;;;;5033328;28;21062;-94
2022/11/05 05:53:42;;;;;;;0.20;0.20;;;5.70;99.90;;;;;;5015961;28;20480;-94
2022/11/05 05:56:08;;;;;;;0.37;0.37;;;5.80;99.90;;;;;;5004443;28;20431;-94
2022/11/05 05:58:36;;;;;;;0.40;0.40;;;5.80;99.90;;;;;;5027523;28;20183;-93
2022/11/05 06:01:14;;;;;;;0.30;0.30;;;5.80;99.90;;;;;;5029473;28;20198;-94
2022/11/05 06:03:39;;;;;;;0.30;0.30;;;5.80;99.90;;;;;;5008583;28;20496;-94
2022/11/05 06:06:07;;;;;;;0.30;0.30;;;5.70;99.90;;;;;;5024855;28;20451;-95
2022/11/05 06:08:34;;;;;;;0.30;0.30;;;5.70;99.90;;;;;;5031139;28;20272;-95
2022/11/05 06:11:00;;;;;;;0.30;0.30;;;5.80;99.90;;;;;;5028308;28;20486;-94
2022/11/05 06:13:26;;;;;;;0.30;0.30;;;5.80;99.90;;;;;;5014812;28;20461;-94
2022/11/05 06:15:51;;;;;;;0.30;0.30;;;5.80;99.90;;;;;;5016279;28;20450;-94
2022/11/05 06:18:17;;;;;;;0.33;0.33;;;5.80;99.90;;;;;;5033880;28;20435;-94
2022/11/05 06:20:43;;;;;;;0.30;0.30;;;5.80;99.90;;;;;;5032415;28;20203;-94
2022/11/05 06:23:08;;;;;;;0.30;0.30;;;5.80;99.90;;;;;;5028376;28;20191;-94
2022/11/05 06:25:34;;;;;;;0.30;0.30;;;5.80;99.90;;;;;;5014053;28;20250;-92
2022/11/05 06:28:00;;;;;;;0.40;0.40;;;5.80;99.90;;;;;;5009605;28;20195;-93
2022/11/05 06:30:25;;;;;;;0.30;0.30;;;5.80;99.90;;;;;;5025516;28;20194;-94
2022/11/05 06:32:50;;;;;;;0.30;0.30;;;5.80;99.90;;;;;;5032700;28;20647;-94
2022/11/05 06:35:16;;;;;;;0.30;0.30;;;5.80;99.90;;;;;;5026590;28;20227;-94
2022/11/05 06:37:42;;;;;;;0.30;0.30;;;5.80;99.90;;;;;;5026543;28;20191;-93
2022/11/05 06:40:08;;;;;;;0.30;0.30;;;5.80;99.90;;;;;;5011735;28;20271;-93
2022/11/05 06:42:34;;;;;;;0.30;0.30;;;5.80;99.90;;;;;;5012247;28;20192;-94
2022/11/05 06:44:59;;;;;;;0.30;0.30;;;5.80;99.90;;;;;;5024986;28;20450;-94
2022/11/05 06:47:25;;;;;;;0.40;0.40;;;5.80;99.90;;;;;;5011841;28;20473;-94
2022/11/05 06:49:52;;;;;;;0.30;0.30;;;5.70;99.90;;;;;;5027622;28;20215;-93
2022/11/05 06:52:17;;;;;;;0.30;0.30;;;5.70;99.90;;;;;;5017500;28;20499;-91
2022/11/05 06:54:43;;;;;;;0.30;0.30;;;5.70;99.90;;;;;;4998645;28;20280;-94
2022/11/05 06:57:11;;;;;;;0.30;0.30;;;5.80;99.90;;;;;;5039896;28;20219;-93
2022/11/05 06:59:37;;;;;;;0.20;0.20;;;5.80;99.90;;;;;;5017402;28;20270;-95
2022/11/05 07:02:04;;;;;;;0.30;0.30;;;5.80;99.90;;;;;;5021869;28;20451;-94
2022/11/05 07:04:29;;;;;;;0.30;0.30;;;5.80;99.90;;;;;;5028049;28;20450;-93
2022/11/05 07:06:57;;;;;;;0.30;0.30;;;5.80;99.90;;;;;;5030432;28;20448;-93
2022/11/05 07:09:22;;;;;;;0.40;0.40;;;5.80;99.90;;;;;;5029974;28;20195;-95
2022/11/05 07:11:48;;;;;;;0.30;0.30;;;5.80;99.90;;;;;;5003453;28;20479;-93
2022/11/05 07:14:13;;;;;;;0.30;0.30;;;5.90;99.90;;;;;;5015137;28;20268;-94
2022/11/05 07:16:39;;;;;;;0.40;0.40;;;5.90;99.90;;;;;;5030481;28;20187;-93
2022/11/05 07:19:04;;;;;;;0.20;0.20;;;6.00;99.90;;;;;;5027365;28;20238;-94
2022/11/05 07:21:30;;;;;;;0.23;0.23;;;6.00;99.90;;;;;;5004794;28;20191;-93
2022/11/05 07:23:55;;;;;;;0.30;0.30;;;6.00;99.90;;;;;;5030165;28;20183;-93
2022/11/05 07:26:22;;;;;;;0.30;0.30;;;6.00;99.90;;;;;;5027419;28;20191;-93
2022/11/05 07:28:47;;;;;;;0.30;0.30;;;6.00;99.90;;;;;;5008784;28;20695;-92
2022/11/05 07:31:13;;;;;;;0.30;0.30;;;6.00;99.90;;;;;;5029968;28;20473;-94
2022/11/05 07:33:38;;;;;;;0.30;0.30;;;6.00;99.90;;;;;;5033867;28;20278;-93
2022/11/05 07:36:04;;;;;;;0.30;0.30;;;6.20;99.90;;;;;;5029912;28;20236;-93
2022/11/05 07:38:30;;;;;;;0.30;0.30;;;6.20;99.90;;;;;;5012574;28;20192;-95
2022/11/05 07:40:58;;;;;;;0.30;0.30;;;6.20;99.90;;;;;;5034135;28;20478;-93
2022/11/05 07:43:23;;;;;;;0.30;0.30;;;6.40;99.90;;;;;;5012403;28;20188;-92
2022/11/05 07:45:49;;;;;;;0.30;0.30;;;6.40;99.90;;;;;;5034028;28;20457;-93
2022/11/05 07:48:14;;;;;;;0.30;0.30;;;6.50;99.90;;;;;;5023424;28;20184;-94
2022/11/05 07:50:40;;;;;;;0.30;0.30;;;6.60;99.90;;;;;;5027431;28;20215;-94
2022/11/05 07:53:11;;;;;;;0.30;0.30;;;6.60;99.90;;;;;;5031475;28;20353;-94
2022/11/05 07:55:39;;;;;;;0.30;0.30;;;6.80;99.90;;;;;;5035093;28;20211;-94
2022/11/05 07:58:05;;;;;;;0.30;0.30;;;6.90;99.90;;;;;;5012529;28;20427;-95
2022/11/05 08:00:31;;;;;;;0.20;0.20;;;7.00;99.90;;;;;;5030553;28;20627;-94
2022/11/05 08:02:59;;;;;;;0.30;0.30;;;7.10;99.90;;;;;;5033533;28;20190;-94
2022/11/05 08:05:25;;;;;;;0.30;0.30;;;7.20;99.90;;;;;;5029528;28;20451;-95
2022/11/05 08:07:56;;;;;;;0.30;0.30;;;7.30;99.90;;;;;;5013781;28;20982;-95
2022/11/05 08:10:22;;;;;;;0.30;0.30;;;7.40;99.90;;;;;;5026481;28;20199;-94
2022/11/05 08:12:52;;;;;;;0.20;0.20;;;7.30;99.90;;;;;;5029703;28;20508;-94
2022/11/05 08:15:18;;;;;;;0.30;0.30;;;7.20;99.90;;;;;;5033411;28;20457;-94
2022/11/05 08:17:45;;;;;;;0.30;0.30;;;7.40;99.90;;;;;;5011806;28;20456;-93
2022/11/05 08:20:12;;;;;;;0.30;0.30;;;7.60;99.90;;;;;;5003881;28;20207;-92
2022/11/05 08:22:43;;;;;;;0.30;0.30;;;7.70;99.90;;;;;;5028763;28;20439;-93
2022/11/05 08:25:11;;;;;;;0.30;0.30;;;7.80;99.90;;;;;;5011269;28;20468;-93
2022/11/05 08:27:36;;;;;;;0.30;0.30;;;8.00;99.90;;;;;;5035424;28;20443;-93
2022/11/05 08:30:04;;;;;;;0.20;0.20;;;8.10;99.90;;;;;;5020796;28;20449;-90
2022/11/05 08:32:29;;;;;;;0.30;0.30;;;8.30;99.90;;;;;;5020961;28;20990;-93
2022/11/05 08:34:55;;;;;;;0.20;0.20;;;8.00;99.90;;;;;;5027439;28;20465;-92
2022/11/05 08:37:21;;;;;;;0.30;0.30;;;7.80;99.90;;;;;;5031163;28;20246;-93
2022/11/05 08:39:47;;;;;;;0.30;0.30;;;7.60;99.90;;;;;;5006033;28;20301;-94
2022/11/05 08:42:22;;;;;;;0.20;0.20;;;7.80;99.90;;;;;;5029664;28;20481;-93
2022/11/05 08:44:48;;;;;;;0.30;0.30;;;8.00;99.90;;;;;;5009820;28;20191;-93
2022/11/05 08:47:13;;;;;;;0.20;0.20;;;8.20;99.90;;;;;;5029465;28;20442;-93
2022/11/05 08:49:39;;;;;;;0.30;0.30;;;8.30;99.90;;;;;;5026907;28;20726;-92
2022/11/05 08:52:04;;;;;;;0.20;0.20;;;8.40;99.90;;;;;;5028883;28;20218;-91
2022/11/05 08:54:30;;;;;;;0.20;0.20;;;8.60;99.90;;;;;;5025784;28;20237;-94
2022/11/05 08:56:55;;;;;;;0.20;0.20;;;8.70;99.90;;;;;;5033016;28;20527;-94
2022/11/05 08:59:21;;;;;;;0.20;0.20;;;8.80;99.90;;;;;;5029359;28;20274;-93
2022/11/05 09:01:46;;;;;;;0.20;0.20;;;8.90;99.90;;;;;;5029555;28;20560;-93
2022/11/05 09:04:12;;;;;;;0.20;0.20;;;9.10;99.90;;;;;;5027031;28;20185;-91
2022/11/05 09:06:37;;;;;;;0.30;0.30;;;9.40;99.90;;;;;;5014332;28;20188;-91
2022/11/05 09:09:03;;;;;;;0.20;0.20;;;9.50;99.90;;;;;;5023358;28;20235;-94
2022/11/05 09:11:29;;;;;;;0.20;0.20;;;9.60;99.90;;;;;;5028788;28;20223;-94
2022/11/05 09:13:54;;;;;;;0.20;0.20;;;9.70;99.90;;;;;;5004821;28;20261;-93
2022/11/05 09:16:23;;;;;;;0.20;0.20;;;9.70;99.90;;;;;;5028619;28;20191;-93
2022/11/05 09:18:49;;;;;;;0.20;0.20;;;10.00;99.90;;;;;;5032742;28;20606;-93
2022/11/05 09:21:18;;;;;;;0.20;0.20;;;10.10;99.90;;;;;;5018065;28;20473;-94
2022/11/05 09:23:44;;;;;;;0.20;0.20;;;10.20;99.90;;;;;;5021212;28;20538;-94
2022/11/05 09:26:13;;;;;;;0.20;0.20;;;10.20;99.90;;;;;;5024666;28;20481;-93
2022/11/05 09:28:39;;;;;;;0.20;0.20;;;10.40;99.90;;;;;;5034160;28;20411;-93
2022/11/05 09:31:07;;;;;;;0.20;0.20;;;10.50;99.90;;;;;;5028765;28;20563;-94
2022/11/05 09:33:38;;;;;;;0.20;0.20;;;10.70;99.90;;;;;;5010535;28;20783;-93
2022/11/05 09:36:04;;;;;;;0.20;0.20;;;10.80;99.90;;;;;;5031322;28;20493;-94
2022/11/05 09:38:34;;;;;;;0.20;0.20;;;10.90;99.90;;;;;;5021429;28;20442;-93
2022/11/05 09:41:13;;;;;;;0.10;0.10;;;11.00;99.90;;;;;;5022721;28;20511;-94
2022/11/05 09:43:40;;;;;;;0.20;0.20;;;11.00;99.90;;;;;;5003629;28;20474;-94
2022/11/05 09:46:23;;;;;;;0.20;0.20;;;11.30;99.90;;;;;;5007296;28;21689;-94
2022/11/05 09:48:52;;;;;;;0.10;0.10;;;11.30;99.90;;;;;;5027489;28;20561;-94
2022/11/05 09:51:19;;;;;;;0.10;0.10;;;11.10;99.90;;;;;;5023004;28;20472;-94
2022/11/05 09:53:45;;;;;;;0.20;0.20;;;10.80;99.90;;;;;;5030690;28;20485;-93
2022/11/05 09:56:33;;;;;;;0.20;0.20;;;10.60;99.90;;;;;;5027206;28;20537;-95
2022/11/05 09:59:05;;;;;;;0.20;0.20;;;10.50;99.90;;;;;;5026937;28;20439;-94
2022/11/05 10:01:35;;;;;;;0.20;0.20;;;10.30;99.90;;;;;;5023519;28;20501;-92
2022/11/05 10:04:12;;;;;;;0.20;0.20;;;10.10;99.90;;;;;;5018848;28;20437;-95
2022/11/05 10:06:48;;;;;;;0.20;0.20;;;10.10;99.90;;;;;;5017884;28;20564;-94
2022/11/05 10:09:23;;;;;;;0.20;0.20;;;10.40;99.90;;;;;;5009594;28;20437;-95
2022/11/05 10:11:57;;;;;;;0.20;0.20;;;11.20;99.90;;;;;;5022461;28;20998;-94
2022/11/05 10:14:28;;;;;;;0.10;0.10;;;11.70;99.90;;;;;;5032108;28;20572;-94
2022/11/05 10:17:06;;;;;;;0.20;0.20;;;12.40;99.90;;;;;;5026835;28;20469;-92
2022/11/05 10:19:42;;;;;;;0.20;0.20;;;12.30;99.90;;;;;;5011822;28;20622;-93
2022/11/05 10:22:17;;;;;;;0.10;0.10;;;12.30;99.90;;;;;;5031392;28;20456;-94
2022/11/05 10:24:47;;;;;;;0.20;0.20;;;12.50;99.90;;;;;;5009880;28;20438;-95
2022/11/05 10:27:24;;;;;;;0.10;0.10;;;12.70;99.90;;;;;;5028353;28;20556;-94
2022/11/05 10:29:59;;;;;;;0.10;0.10;;;12.90;99.90;;;;;;5013557;28;20569;-94
2022/11/05 10:32:32;;;;;;;0.10;0.10;;;12.90;99.90;;;;;;5032204;28;21198;-95
2022/11/05 10:35:00;;;;;;;0.20;0.20;;;13.20;99.90;;;;;;5030318;28;20477;-94
2022/11/05 10:37:32;;;;;;;0.10;0.10;;;13.40;99.90;;;;;;5025392;28;20512;-95
2022/11/05 10:39:58;;;;;;;0.10;0.10;;;13.20;99.90;;;;;;5028586;28;20909;-93
2022/11/05 10:43:02;;;;;;;0.10;0.10;;;13.50;99.90;;;;;;5029632;28;21131;-93
2022/11/05 10:45:34;;;;;;;0.10;0.10;;;13.80;99.90;;;;;;5013238;28;20443;-93
2022/11/05 10:48:17;;;;;;;0.10;0.10;;;13.70;99.90;;;;;;5009249;28;21258;-94
2022/11/05 10:50:43;;;;;;;0.10;0.10;;;14.10;99.90;;;;;;5030652;28;20547;-94
2022/11/05 10:53:15;;;;;;;0.10;0.10;;;14.50;99.90;;;;;;5025581;28;20879;-94
2022/11/05 10:55:44;;;;;;;0.10;0.10;;;14.10;99.90;;;;;;5030566;28;20184;-92
2022/11/05 10:58:24;;;;;;;0.10;0.10;;;14.50;99.90;;;;;;5010842;28;20528;-93
2022/11/05 11:00:52;;;;;;;0.10;0.10;;;14.50;99.90;;;;;;5016495;28;20437;-93
2022/11/05 11:03:38;;;;;;;0.10;0.10;;;14.80;99.90;;;;;;5008279;28;20495;-93
2022/11/05 11:06:27;;;;;;;0.10;0.10;;;14.40;99.90;;;;;;5016412;28;20442;-93
2022/11/05 11:08:55;;;;;;;0.10;0.10;;;14.50;99.90;;;;;;5005417;28;20558;-86
2022/11/05 11:11:37;;;;;;;0.10;0.10;;;14.70;99.90;;;;;;5022900;28;20612;-85
2022/11/05 11:14:18;;;;;;;0.10;0.10;;;15.70;99.90;;;;;;5022712;28;20457;-87
2022/11/05 11:16:46;;;;;;;0.10;0.10;;;16.00;99.90;;;;;;5030831;28;20468;-87
2022/11/05 11:19:31;;;;;;;0.10;0.10;;;15.80;99.90;;;;;;5017927;28;20951;-86
2022/11/05 11:22:05;;;;;;;0.10;0.10;;;16.50;99.90;;;;;;5026588;28;20450;-87
2022/11/05 11:24:39;;;;;;;0.10;0.10;;;16.60;99.90;;;;;;5019430;28;20528;-88
2022/11/05 11:27:10;;;;;;;0.10;0.10;;;17.30;99.90;;;;;;5007756;28;20507;-88
2022/11/05 11:29:42;;;;;;;0.10;0.10;;;16.40;99.90;;;;;;5022484;28;20498;-87
2022/11/05 11:32:14;;;;;;;0.10;0.10;;;15.80;99.90;;;;;;5010620;28;20493;-85
2022/11/05 11:34:41;;;;;;;0.10;0.10;;;16.20;99.90;;;;;;5028916;28;20438;-87
2022/11/05 11:37:22;;;;;;;0.10;0.10;;;16.80;99.90;;;;;;5028763;28;21038;-87
2022/11/05 11:39:59;;;;;;;0.10;0.10;;;17.00;99.90;;;;;;5007357;28;20454;-90
2022/11/05 11:42:29;;;;;;;0.10;0.10;;;17.70;99.90;;;;;;5012801;28;20438;-90
2022/11/05 11:44:58;;;;;;;0.10;0.10;;;18.00;99.90;;;;;;5013932;28;20565;-89
2022/11/05 11:47:26;;;;;;;0.10;0.10;;;18.20;99.90;;;;;;5021047;28;20455;-89
2022/11/05 11:50:00;;;;;;;0.10;0.10;;;18.20;99.90;;;;;;5024525;28;20462;-90
2022/11/05 11:52:35;;;;;;;0.10;0.00;;;18.10;99.90;;;;;;5030583;28;20576;-88
2022/11/05 11:55:09;;;;;;;0.00;0.00;;;17.40;99.90;;;;;;5015842;28;20438;-89
2022/11/05 11:57:47;;;;;;;0.10;0.00;;;17.00;99.90;;;;;;5023743;28;20503;-90
2022/11/05 12:00:14;;;;;;;0.10;0.07;;;17.20;99.90;;;;;;5023936;28;20439;-89
2022/11/05 12:03:12;;;;;;;0.10;0.00;;;17.70;99.90;;;;;;5027355;28;20538;-87
2022/11/05 12:06:17;;;;;;;0.10;0.10;;;16.70;99.90;;;;;;5016321;28;20449;-89
2022/11/05 12:09:11;;;;;;;0.10;0.10;;;15.70;99.90;;;;;;5024531;28;20452;-86
2022/11/05 12:11:55;;;;;;;0.10;0.10;;;15.20;99.90;;;;;;5019769;28;20486;-84
2022/11/05 12:14:32;;;;;;;0.10;0.10;;;14.50;99.90;;;;;;5026062;28;20460;-85
2022/11/05 12:17:09;;;;;;;0.10;0.10;;;14.70;99.90;;;;;;5016618;28;20559;-87
2022/11/05 12:20:16;;;;;;;0.10;0.10;;;14.30;99.90;;;;;;5019079;28;20442;-84
2022/11/05 12:22:59;;;;;;;0.10;0.10;;;14.70;99.90;;;;;;4979588;28;20529;-84
2022/11/05 12:25:41;;;;;;;0.10;0.10;;;14.40;99.90;;;;;;5025277;28;20448;-84
2022/11/05 12:28:25;;;;;;;0.10;0.10;;;14.90;99.90;;;;;;5013329;28;20451;-84
2022/11/05 12:31:25;;;;;;;0.10;0.10;;;15.70;99.90;;;;;;5022351;28;20466;-85
2022/11/05 12:33:55;;;;;;;0.10;0.10;;;17.50;99.90;;;;;;5022013;28;20446;-86
2022/11/05 12:36:29;;;;;;;0.10;0.10;;;18.40;99.90;;;;;;4973819;28;1352748;-87
2022/11/05 12:39:18;;;;;;;0.10;0.10;;;18.30;99.90;;;;;;5024817;28;20190;-87
2022/11/05 12:41:58;;;;;;;0.10;0.10;;;16.50;99.90;;;;;;5009388;28;20814;-85
2022/11/05 12:44:55;;;;;;;0.10;0.10;;;15.40;99.90;;;;;;5019689;28;20447;-86
2022/11/05 12:47:38;;;;;;;0.10;0.10;;;16.80;99.90;;;;;;5008187;28;20454;-87
2022/11/05 12:50:28;;;;;;;0.10;0.10;;;18.00;99.90;;;;;;5021983;28;20509;-88
2022/11/05 12:53:28;;;;;;;0.20;0.10;;;16.50;99.90;;;;;;4991735;28;20470;-88
2022/11/05 12:55:58;;;;;;;0.10;0.10;;;16.50;99.90;;;;;;5001726;28;21608;-87
2022/11/05 12:58:33;;;;;;;0.10;0.00;;;17.00;99.90;;;;;;5027273;28;20467;-85
2022/11/05 13:01:08;;;;;;;0.10;0.10;;;18.40;99.90;;;;;;5021507;28;20572;-87
2022/11/05 13:04:01;;;;;;;0.10;0.00;;;19.40;99.90;;;;;;5017575;28;20454;-86
2022/11/05 13:06:54;;;;;;;0.10;0.00;;;19.10;99.90;;;;;;5011460;28;20459;-87
2022/11/05 13:09:37;;;;;;;0.10;0.10;;;18.20;99.90;;;;;;5012936;28;20918;-87
2022/11/05 13:12:08;;;;;;;0.10;0.00;;;18.30;99.90;;;;;;5018818;28;20483;-87
2022/11/05 13:14:46;;;;;;;0.10;0.10;;;16.00;99.90;;;;;;5007038;28;20478;-85
2022/11/05 13:17:34;;;;;;;0.10;0.10;;;14.80;99.90;;;;;;4997620;28;20482;-85
2022/11/05 13:20:06;;;;;;;0.10;0.10;;;14.00;99.90;;;;;;4969536;28;20446;-84
2022/11/05 13:22:51;;;;;;;0.10;0.10;;;15.50;99.90;;;;;;5030451;28;20458;-87
2022/11/05 13:25:21;;;;;;;0.10;0.10;;;17.90;99.90;;;;;;5015757;28;21095;-87
2022/11/05 13:28:06;;;;;;;0.10;0.07;;;18.90;99.90;;;;;;5020920;28;20988;-87
2022/11/05 13:30:36;;;;;;;0.10;0.10;;;19.70;99.90;;;;;;5014858;28;20456;-88
2022/11/05 13:33:09;;;;;;;0.10;0.00;;;19.30;99.90;;;;;;5015324;28;20505;-89
2022/11/05 13:38:57;;;;;;;0.10;0.10;;;17.40;99.90;;;;;;4992394;28;20476;-86
2022/11/05 13:38:59;;;;;;;0.10;0.10;;;15.70;99.90;;;;;;4997627;28;20451;-83
2022/11/05 13:41:50;;;;;;;0.10;0.10;;;14.50;99.90;;;;;;5006492;28;20474;-85
2022/11/05 13:44:38;;;;;;;0.00;0.00;;;13.90;99.90;;;;;;5000243;28;20451;-84
2022/11/05 13:47:40;;;;;;;0.10;0.10;;;13.50;99.90;;;;;;4951617;28;20648;-84
2022/11/05 13:50:24;;;;;;;0.10;0.10;;;13.10;99.90;;;;;;4941555;28;20449;-85
2022/11/05 13:53:08;;;;;;;0.10;0.10;;;12.90;99.90;;;;;;4963228;28;20509;-84